sensor_id;sensor_type;location;lat;lon;timestamp;pressure;altitude;pressure_sealevel;temperature;humidity
24762;BME280;12865;51.934;10.330;2023-12-14T00:01:09;98147.88;;;5.31;100.00
24762;BME280;12865;51.934;10.330;2023-12-14T00:03:55;98143.13;;;5.25;100.00
24762;BME280;12865;51.934;10.330;2023-12-14T00:06:41;98144.38;;;5.30;100.00
24762;BME280;12865;51.934;10.330;2023-12-14T00:09:27;98145.41;;;5.48;100.00
24762;BME280;12865;51.934;10.330;2023-12-14T00:12:12;98148.41;;;5.34;100.00
24762;BME280;12865;51.934;10.330;2023-12-14T00:14:58;98151.25;;;5.42;100.00
24762;BME280;12865;51.934;10.330;2023-12-14T00:17:44;98144.75;;;5.26;100.00
24762;BME280;12865;51.934;10.330;2023-12-14T00:20:29;98152.78;;;5.45;100.00
24762;BME280;12865;51.934;10.330;2023-12-14T00:23:15;98146.91;;;5.32;100.00
24762;BME280;12865;51.934;10.330;2023-12-14T00:26:01;98148.84;;;5.30;100.00
24762;BME280;12865;51.934;10.330;2023-12-14T00:28:47;98168.59;;;5.35;100.00
24762;BME280;12865;51.934;10.330;2023-12-14T00:31:32;98171.47;;;5.23;100.00
24762;BME280;12865;51.934;10.330;2023-12-14T00:34:18;98172.19;;;5.25;100.00
24762;BME280;12865;51.934;10.330;2023-12-14T00:37:03;98170.56;;;5.12;100.00
24762;BME280;12865;51.934;10.330;2023-12-14T00:39:49;98181.13;;;5.12;100.00
24762;BME280;12865;51.934;10.330;2023-12-14T00:42:35;98188.94;;;5.14;100.00
24762;BME280;12865;51.934;10.330;2023-12-14T00:45:20;98187.88;;;5.26;100.00
24762;BME280;12865;51.934;10.330;2023-12-14T00:48:06;98190.75;;;5.13;100.00
24762;BME280;12865;51.934;10.330;2023-12-14T00:50:52;98199.91;;;5.09;100.00
24762;BME280;12865;51.934;10.330;2023-12-14T00:53:37;98207.81;;;5.30;100.00
24762;BME280;12865;51.934;10.330;2023-12-14T00:56:23;98213.56;;;5.14;100.00
24762;BME280;12865;51.934;10.330;2023-12-14T00:59:09;98217.16;;;5.13;100.00
24762;BME280;12865;51.934;10.330;2023-12-14T01:01:54;98227.22;;;4.99;100.00
24762;BME280;12865;51.934;10.330;2023-12-14T01:04:40;98236.38;;;4.95;100.00
24762;BME280;12865;51.934;10.330;2023-12-14T01:07:27;98231.84;;;5.06;100.00
24762;BME280;12865;51.934;10.330;2023-12-14T01:10:13;98239.78;;;5.06;100.00
24762;BME280;12865;51.934;10.330;2023-12-14T01:12:58;98246.34;;;5.12;100.00
24762;BME280;12865;51.934;10.330;2023-12-14T01:15:44;98252.13;;;5.06;100.00
24762;BME280;12865;51.934;10.330;2023-12-14T01:18:30;98261.31;;;5.02;100.00
24762;BME280;12865;51.934;10.330;2023-12-14T01:21:15;98266.50;;;4.92;100.00
24762;BME280;12865;51.934;10.330;2023-12-14T01:24:01;98270.63;;;4.85;100.00
24762;BME280;12865;51.934;10.330;2023-12-14T01:26:49;98276.50;;;4.89;100.00
24762;BME280;12865;51.934;10.330;2023-12-14T01:29:35;98283.59;;;4.88;100.00
24762;BME280;12865;51.934;10.330;2023-12-14T01:32:21;98285.38;;;4.88;100.00
24762;BME280;12865;51.934;10.330;2023-12-14T01:35:07;98295.00;;;4.78;100.00
24762;BME280;12865;51.934;10.330;2023-12-14T01:37:53;98297.91;;;4.74;100.00
24762;BME280;12865;51.934;10.330;2023-12-14T01:40:38;98293.19;;;4.89;100.00
24762;BME280;12865;51.934;10.330;2023-12-14T01:43:24;98307.47;;;4.87;100.00
24762;BME280;12865;51.934;10.330;2023-12-14T01:46:10;98307.00;;;4.82;100.00
24762;BME280;12865;51.934;10.330;2023-12-14T01:48:55;98313.59;;;4.87;100.00
24762;BME280;12865;51.934;10.330;2023-12-14T01:51:41;98317.31;;;4.85;100.00
24762;BME280;12865;51.934;10.330;2023-12-14T01:54:27;98314.75;;;4.94;100.00
24762;BME280;12865;51.934;10.330;2023-12-14T01:57:13;98318.41;;;4.82;100.00
24762;BME280;12865;51.934;10.330;2023-12-14T01:59:58;98324.47;;;4.94;100.00
24762;BME280;12865;51.934;10.330;2023-12-14T02:02:44;98320.44;;;4.90;100.00
24762;BME280;12865;51.934;10.330;2023-12-14T02:05:30;98329.31;;;4.89;100.00
24762;BME280;12865;51.934;10.330;2023-12-14T02:08:15;98323.53;;;4.84;100.00
24762;BME280;12865;51.934;10.330;2023-12-14T02:11:01;98335.22;;;4.81;100.00
24762;BME280;12865;51.934;10.330;2023-12-14T02:13:46;98326.56;;;4.90;100.00
24762;BME280;12865;51.934;10.330;2023-12-14T02:16:32;98342.63;;;4.87;100.00
24762;BME280;12865;51.934;10.330;2023-12-14T02:19:18;98338.31;;;4.86;100.00
24762;BME280;12865;51.934;10.330;2023-12-14T02:22:04;98346.00;;;4.89;100.00
24762;BME280;12865;51.934;10.330;2023-12-14T02:24:49;98337.69;;;4.94;100.00
24762;BME280;12865;51.934;10.330;2023-12-14T02:27:35;98353.69;;;4.81;100.00
24762;BME280;12865;51.934;10.330;2023-12-14T02:30:21;98360.00;;;4.69;100.00
24762;BME280;12865;51.934;10.330;2023-12-14T02:33:06;98347.81;;;4.78;100.00
24762;BME280;12865;51.934;10.330;2023-12-14T02:35:52;98354.78;;;4.79;100.00
24762;BME280;12865;51.934;10.330;2023-12-14T02:38:37;98353.59;;;4.83;100.00
24762;BME280;12865;51.934;10.330;2023-12-14T02:41:23;98357.63;;;4.87;100.00
24762;BME280;12865;51.934;10.330;2023-12-14T02:44:09;98365.59;;;4.76;100.00
24762;BME280;12865;51.934;10.330;2023-12-14T02:46:54;98372.81;;;4.73;100.00
24762;BME280;12865;51.934;10.330;2023-12-14T02:49:41;98376.66;;;4.58;100.00
24762;BME280;12865;51.934;10.330;2023-12-14T02:52:26;98388.22;;;4.46;100.00
24762;BME280;12865;51.934;10.330;2023-12-14T02:55:12;98391.44;;;4.50;100.00
24762;BME280;12865;51.934;10.330;2023-12-14T02:57:58;98388.78;;;4.50;100.00
24762;BME280;12865;51.934;10.330;2023-12-14T03:00:43;98395.53;;;4.31;100.00
24762;BME280;12865;51.934;10.330;2023-12-14T03:03:29;98384.38;;;4.39;100.00
24762;BME280;12865;51.934;10.330;2023-12-14T03:06:15;98392.44;;;4.26;100.00
24762;BME280;12865;51.934;10.330;2023-12-14T03:09:00;98390.88;;;4.24;100.00
24762;BME280;12865;51.934;10.330;2023-12-14T03:11:46;98395.66;;;4.30;100.00
24762;BME280;12865;51.934;10.330;2023-12-14T03:14:33;98399.63;;;4.24;100.00
24762;BME280;12865;51.934;10.330;2023-12-14T03:17:19;98404.28;;;4.21;100.00
24762;BME280;12865;51.934;10.330;2023-12-14T03:20:05;98401.66;;;4.21;100.00
24762;BME280;12865;51.934;10.330;2023-12-14T03:22:51;98411.25;;;4.33;100.00
24762;BME280;12865;51.934;10.330;2023-12-14T03:25:37;98421.44;;;4.26;100.00
24762;BME280;12865;51.934;10.330;2023-12-14T03:28:22;98423.38;;;4.24;100.00
24762;BME280;12865;51.934;10.330;2023-12-14T03:31:11;98432.09;;;4.14;100.00
24762;BME280;12865;51.934;10.330;2023-12-14T03:33:57;98430.56;;;4.11;100.00
24762;BME280;12865;51.934;10.330;2023-12-14T03:36:43;98440.84;;;4.03;100.00
24762;BME280;12865;51.934;10.330;2023-12-14T03:39:29;98442.16;;;4.09;100.00
24762;BME280;12865;51.934;10.330;2023-12-14T03:42:14;98448.19;;;4.11;100.00
24762;BME280;12865;51.934;10.330;2023-12-14T03:45:00;98450.56;;;4.14;100.00
24762;BME280;12865;51.934;10.330;2023-12-14T03:47:45;98460.63;;;3.98;100.00
24762;BME280;12865;51.934;10.330;2023-12-14T03:50:31;98461.31;;;4.00;100.00
24762;BME280;12865;51.934;10.330;2023-12-14T03:53:18;98463.25;;;3.98;100.00
24762;BME280;12865;51.934;10.330;2023-12-14T03:56:03;98472.50;;;4.03;100.00
24762;BME280;12865;51.934;10.330;2023-12-14T03:58:49;98486.03;;;3.99;100.00
24762;BME280;12865;51.934;10.330;2023-12-14T04:01:35;98489.38;;;3.89;100.00
24762;BME280;12865;51.934;10.330;2023-12-14T04:04:24;98489.38;;;4.01;100.00
24762;BME280;12865;51.934;10.330;2023-12-14T04:07:10;98487.88;;;3.74;100.00
24762;BME280;12865;51.934;10.330;2023-12-14T04:09:55;98495.78;;;3.74;100.00
24762;BME280;12865;51.934;10.330;2023-12-14T04:12:41;98494.38;;;3.81;100.00
24762;BME280;12865;51.934;10.330;2023-12-14T04:15:27;98494.00;;;3.75;100.00
24762;BME280;12865;51.934;10.330;2023-12-14T04:18:13;98501.44;;;3.81;100.00
24762;BME280;12865;51.934;10.330;2023-12-14T04:20:59;98507.38;;;3.72;100.00
24762;BME280;12865;51.934;10.330;2023-12-14T04:23:44;98508.88;;;3.87;100.00
24762;BME280;12865;51.934;10.330;2023-12-14T04:26:31;98513.09;;;3.89;100.00
24762;BME280;12865;51.934;10.330;2023-12-14T04:29:16;98518.28;;;3.67;100.00
24762;BME280;12865;51.934;10.330;2023-12-14T04:32:02;98527.25;;;3.65;100.00
24762;BME280;12865;51.934;10.330;2023-12-14T04:34:48;98535.78;;;3.68;100.00
24762;BME280;12865;51.934;10.330;2023-12-14T04:37:34;98539.66;;;3.75;100.00
24762;BME280;12865;51.934;10.330;2023-12-14T04:40:21;98545.38;;;3.69;100.00
24762;BME280;12865;51.934;10.330;2023-12-14T04:43:07;98556.94;;;3.55;100.00
24762;BME280;12865;51.934;10.330;2023-12-14T04:45:52;98551.94;;;3.64;100.00
24762;BME280;12865;51.934;10.330;2023-12-14T04:48:38;98554.41;;;3.54;100.00
24762;BME280;12865;51.934;10.330;2023-12-14T04:51:24;98557.38;;;3.49;100.00
24762;BME280;12865;51.934;10.330;2023-12-14T04:54:10;98561.97;;;3.59;100.00
24762;BME280;12865;51.934;10.330;2023-12-14T04:56:55;98572.69;;;3.68;100.00
24762;BME280;12865;51.934;10.330;2023-12-14T04:59:41;98576.00;;;3.59;100.00
24762;BME280;12865;51.934;10.330;2023-12-14T05:02:27;98577.38;;;3.52;100.00
24762;BME280;12865;51.934;10.330;2023-12-14T05:05:13;98580.31;;;3.60;100.00
24762;BME280;12865;51.934;10.330;2023-12-14T05:07:59;98586.91;;;3.66;100.00
24762;BME280;12865;51.934;10.330;2023-12-14T05:10:44;98599.03;;;3.68;100.00
24762;BME280;12865;51.934;10.330;2023-12-14T05:13:30;98603.72;;;3.52;100.00
24762;BME280;12865;51.934;10.330;2023-12-14T05:16:16;98608.94;;;3.65;100.00
24762;BME280;12865;51.934;10.330;2023-12-14T05:19:02;98614.28;;;3.52;100.00
24762;BME280;12865;51.934;10.330;2023-12-14T05:21:47;98617.31;;;3.59;100.00
24762;BME280;12865;51.934;10.330;2023-12-14T05:24:33;98620.63;;;3.49;100.00
24762;BME280;12865;51.934;10.330;2023-12-14T05:27:18;98626.28;;;3.56;100.00
24762;BME280;12865;51.934;10.330;2023-12-14T05:30:05;98623.53;;;3.58;100.00
24762;BME280;12865;51.934;10.330;2023-12-14T05:32:50;98629.78;;;3.57;100.00
24762;BME280;12865;51.934;10.330;2023-12-14T05:35:36;98634.06;;;3.58;100.00
24762;BME280;12865;51.934;10.330;2023-12-14T05:38:22;98638.00;;;3.52;100.00
24762;BME280;12865;51.934;10.330;2023-12-14T05:41:07;98636.75;;;3.45;100.00
24762;BME280;12865;51.934;10.330;2023-12-14T05:43:53;98642.75;;;3.47;100.00
24762;BME280;12865;51.934;10.330;2023-12-14T05:46:39;98647.09;;;3.48;100.00
24762;BME280;12865;51.934;10.330;2023-12-14T05:49:24;98641.72;;;3.49;100.00
24762;BME280;12865;51.934;10.330;2023-12-14T05:52:11;98654.34;;;3.44;100.00
24762;BME280;12865;51.934;10.330;2023-12-14T05:54:57;98655.50;;;3.53;100.00
24762;BME280;12865;51.934;10.330;2023-12-14T05:57:42;98658.97;;;3.53;100.00
24762;BME280;12865;51.934;10.330;2023-12-14T06:00:28;98663.50;;;3.51;100.00
24762;BME280;12865;51.934;10.330;2023-12-14T06:03:13;98663.63;;;3.50;100.00
24762;BME280;12865;51.934;10.330;2023-12-14T06:05:59;98665.09;;;3.54;100.00
24762;BME280;12865;51.934;10.330;2023-12-14T06:08:45;98671.94;;;3.44;100.00
24762;BME280;12865;51.934;10.330;2023-12-14T06:11:30;98686.69;;;3.46;100.00
24762;BME280;12865;51.934;10.330;2023-12-14T06:14:16;98685.03;;;3.33;100.00
24762;BME280;12865;51.934;10.330;2023-12-14T06:17:02;98694.19;;;3.40;100.00
24762;BME280;12865;51.934;10.330;2023-12-14T06:19:48;98703.91;;;3.39;100.00
24762;BME280;12865;51.934;10.330;2023-12-14T06:22:35;98707.59;;;3.24;100.00
24762;BME280;12865;51.934;10.330;2023-12-14T06:25:21;98700.94;;;3.31;100.00
24762;BME280;12865;51.934;10.330;2023-12-14T06:28:07;98708.13;;;3.29;100.00
24762;BME280;12865;51.934;10.330;2023-12-14T06:30:53;98706.88;;;3.35;100.00
24762;BME280;12865;51.934;10.330;2023-12-14T06:33:38;98702.13;;;3.27;100.00
24762;BME280;12865;51.934;10.330;2023-12-14T06:36:24;98707.28;;;3.41;100.00
24762;BME280;12865;51.934;10.330;2023-12-14T06:39:14;98715.06;;;3.43;100.00
24762;BME280;12865;51.934;10.330;2023-12-14T06:42:00;98724.63;;;3.44;100.00
24762;BME280;12865;51.934;10.330;2023-12-14T06:44:46;98730.25;;;3.39;100.00
24762;BME280;12865;51.934;10.330;2023-12-14T06:47:32;98742.81;;;3.36;100.00
24762;BME280;12865;51.934;10.330;2023-12-14T06:50:17;98742.56;;;3.39;100.00
24762;BME280;12865;51.934;10.330;2023-12-14T06:53:03;98755.31;;;3.45;100.00
24762;BME280;12865;51.934;10.330;2023-12-14T06:55:48;98746.47;;;3.33;100.00
24762;BME280;12865;51.934;10.330;2023-12-14T06:58:34;98752.69;;;3.45;100.00
24762;BME280;12865;51.934;10.330;2023-12-14T07:01:20;98755.22;;;3.46;100.00
24762;BME280;12865;51.934;10.330;2023-12-14T07:04:06;98750.78;;;3.47;100.00
24762;BME280;12865;51.934;10.330;2023-12-14T07:06:53;98750.97;;;3.44;100.00
24762;BME280;12865;51.934;10.330;2023-12-14T07:09:39;98756.16;;;3.33;100.00
24762;BME280;12865;51.934;10.330;2023-12-14T07:12:24;98756.81;;;3.49;100.00
24762;BME280;12865;51.934;10.330;2023-12-14T07:15:10;98756.06;;;3.47;100.00
24762;BME280;12865;51.934;10.330;2023-12-14T07:17:56;98763.34;;;3.43;100.00
24762;BME280;12865;51.934;10.330;2023-12-14T07:20:41;98775.56;;;3.57;100.00
24762;BME280;12865;51.934;10.330;2023-12-14T07:23:27;98782.91;;;3.52;100.00
24762;BME280;12865;51.934;10.330;2023-12-14T07:26:13;98790.13;;;3.50;100.00
24762;BME280;12865;51.934;10.330;2023-12-14T07:28:58;98795.25;;;3.39;100.00
24762;BME280;12865;51.934;10.330;2023-12-14T07:31:44;98796.63;;;3.44;100.00
24762;BME280;12865;51.934;10.330;2023-12-14T07:34:30;98798.41;;;3.44;100.00
24762;BME280;12865;51.934;10.330;2023-12-14T07:37:16;98803.69;;;3.44;100.00
24762;BME280;12865;51.934;10.330;2023-12-14T07:40:02;98807.72;;;3.49;100.00
24762;BME280;12865;51.934;10.330;2023-12-14T07:42:48;98809.69;;;3.46;100.00
24762;BME280;12865;51.934;10.330;2023-12-14T07:45:34;98810.66;;;3.45;100.00
24762;BME280;12865;51.934;10.330;2023-12-14T07:48:20;98819.50;;;3.44;100.00
24762;BME280;12865;51.934;10.330;2023-12-14T07:51:05;98826.34;;;3.46;100.00
24762;BME280;12865;51.934;10.330;2023-12-14T07:53:51;98838.59;;;3.35;100.00
24762;BME280;12865;51.934;10.330;2023-12-14T07:56:37;98840.56;;;3.31;100.00
24762;BME280;12865;51.934;10.330;2023-12-14T07:59:22;98844.38;;;3.40;100.00
24762;BME280;12865;51.934;10.330;2023-12-14T08:02:08;98855.44;;;3.45;100.00
24762;BME280;12865;51.934;10.330;2023-12-14T08:04:54;98859.84;;;3.44;100.00
24762;BME280;12865;51.934;10.330;2023-12-14T08:07:39;98869.88;;;3.39;100.00
24762;BME280;12865;51.934;10.330;2023-12-14T08:10:25;98867.16;;;3.41;100.00
24762;BME280;12865;51.934;10.330;2023-12-14T08:13:11;98863.75;;;3.51;100.00
24762;BME280;12865;51.934;10.330;2023-12-14T08:15:56;98864.50;;;3.41;100.00
24762;BME280;12865;51.934;10.330;2023-12-14T08:18:42;98880.94;;;3.44;100.00
24762;BME280;12865;51.934;10.330;2023-12-14T08:21:30;98878.72;;;3.38;100.00
24762;BME280;12865;51.934;10.330;2023-12-14T08:24:16;98885.25;;;3.45;100.00
24762;BME280;12865;51.934;10.330;2023-12-14T08:27:02;98893.31;;;3.57;100.00
24762;BME280;12865;51.934;10.330;2023-12-14T08:29:48;98896.56;;;3.47;100.00
24762;BME280;12865;51.934;10.330;2023-12-14T08:32:33;98891.94;;;3.64;100.00
24762;BME280;12865;51.934;10.330;2023-12-14T08:35:19;98905.94;;;3.51;100.00
24762;BME280;12865;51.934;10.330;2023-12-14T08:38:04;98918.66;;;3.32;100.00
24762;BME280;12865;51.934;10.330;2023-12-14T08:40:50;98919.09;;;3.39;100.00
24762;BME280;12865;51.934;10.330;2023-12-14T08:43:36;98927.09;;;3.37;100.00
24762;BME280;12865;51.934;10.330;2023-12-14T08:46:22;98932.59;;;3.47;100.00
24762;BME280;12865;51.934;10.330;2023-12-14T08:49:08;98934.47;;;3.45;100.00
24762;BME280;12865;51.934;10.330;2023-12-14T08:51:54;98933.00;;;3.41;100.00
24762;BME280;12865;51.934;10.330;2023-12-14T08:54:40;98955.13;;;3.38;100.00
24762;BME280;12865;51.934;10.330;2023-12-14T08:57:28;98955.91;;;3.53;100.00
24762;BME280;12865;51.934;10.330;2023-12-14T09:00:14;98962.38;;;3.62;100.00
24762;BME280;12865;51.934;10.330;2023-12-14T09:03:00;98969.38;;;3.36;100.00
24762;BME280;12865;51.934;10.330;2023-12-14T09:05:45;98977.28;;;3.36;100.00
24762;BME280;12865;51.934;10.330;2023-12-14T09:08:31;98981.47;;;3.38;100.00
24762;BME280;12865;51.934;10.330;2023-12-14T09:11:17;98989.59;;;3.35;100.00
24762;BME280;12865;51.934;10.330;2023-12-14T09:14:02;98992.31;;;3.34;100.00
24762;BME280;12865;51.934;10.330;2023-12-14T09:16:48;98996.25;;;3.41;100.00
24762;BME280;12865;51.934;10.330;2023-12-14T09:19:34;99000.97;;;3.36;100.00
24762;BME280;12865;51.934;10.330;2023-12-14T09:22:19;99006.19;;;3.50;100.00
24762;BME280;12865;51.934;10.330;2023-12-14T09:25:06;99007.84;;;3.51;100.00
24762;BME280;12865;51.934;10.330;2023-12-14T09:27:51;99013.75;;;3.42;100.00
24762;BME280;12865;51.934;10.330;2023-12-14T09:30:37;99020.53;;;3.59;100.00
24762;BME280;12865;51.934;10.330;2023-12-14T09:33:23;99027.66;;;3.44;100.00
24762;BME280;12865;51.934;10.330;2023-12-14T09:36:08;99033.22;;;3.39;100.00
24762;BME280;12865;51.934;10.330;2023-12-14T09:38:54;99038.00;;;3.47;100.00
24762;BME280;12865;51.934;10.330;2023-12-14T09:41:40;99039.84;;;3.32;100.00
24762;BME280;12865;51.934;10.330;2023-12-14T09:44:25;99047.25;;;3.40;100.00
24762;BME280;12865;51.934;10.330;2023-12-14T09:47:11;99045.09;;;3.32;100.00
24762;BME280;12865;51.934;10.330;2023-12-14T09:49:58;99049.44;;;3.33;100.00
24762;BME280;12865;51.934;10.330;2023-12-14T09:52:48;99050.44;;;3.45;100.00
24762;BME280;12865;51.934;10.330;2023-12-14T09:55:34;99058.63;;;3.40;100.00
24762;BME280;12865;51.934;10.330;2023-12-14T09:58:20;99063.56;;;3.32;100.00
24762;BME280;12865;51.934;10.330;2023-12-14T10:01:21;99069.19;;;3.40;100.00
24762;BME280;12865;51.934;10.330;2023-12-14T10:04:09;99070.25;;;3.50;100.00
24762;BME280;12865;51.934;10.330;2023-12-14T10:06:55;99067.94;;;3.46;100.00
24762;BME280;12865;51.934;10.330;2023-12-14T10:09:41;99074.25;;;3.43;100.00
24762;BME280;12865;51.934;10.330;2023-12-14T10:12:27;99072.78;;;3.25;100.00
24762;BME280;12865;51.934;10.330;2023-12-14T10:15:12;99078.81;;;3.27;100.00
24762;BME280;12865;51.934;10.330;2023-12-14T10:17:58;99088.28;;;3.30;100.00
24762;BME280;12865;51.934;10.330;2023-12-14T10:20:44;99086.63;;;3.29;100.00
24762;BME280;12865;51.934;10.330;2023-12-14T10:23:30;99091.31;;;3.24;100.00
24762;BME280;12865;51.934;10.330;2023-12-14T10:26:16;99093.19;;;3.36;100.00
24762;BME280;12865;51.934;10.330;2023-12-14T10:29:01;99101.19;;;3.34;100.00
24762;BME280;12865;51.934;10.330;2023-12-14T10:31:50;99103.25;;;3.43;100.00
24762;BME280;12865;51.934;10.330;2023-12-14T10:34:36;99104.09;;;3.30;100.00
24762;BME280;12865;51.934;10.330;2023-12-14T10:37:23;99104.22;;;3.28;100.00
24762;BME280;12865;51.934;10.330;2023-12-14T10:40:13;99106.81;;;3.42;100.00
24762;BME280;12865;51.934;10.330;2023-12-14T10:43:00;99104.91;;;3.44;100.00
24762;BME280;12865;51.934;10.330;2023-12-14T10:45:46;99117.63;;;3.38;100.00
24762;BME280;12865;51.934;10.330;2023-12-14T10:48:37;99115.41;;;3.32;100.00
24762;BME280;12865;51.934;10.330;2023-12-14T10:51:27;99109.19;;;3.33;100.00
24762;BME280;12865;51.934;10.330;2023-12-14T10:54:15;99115.47;;;3.30;100.00
24762;BME280;12865;51.934;10.330;2023-12-14T10:57:01;99129.91;;;3.25;100.00
24762;BME280;12865;51.934;10.330;2023-12-14T10:59:57;99126.97;;;3.43;100.00
24762;BME280;12865;51.934;10.330;2023-12-14T11:02:47;99141.66;;;3.33;100.00
24762;BME280;12865;51.934;10.330;2023-12-14T11:05:34;99128.56;;;3.32;100.00
24762;BME280;12865;51.934;10.330;2023-12-14T11:08:19;99136.69;;;3.29;100.00
24762;BME280;12865;51.934;10.330;2023-12-14T11:11:06;99130.16;;;3.34;100.00
24762;BME280;12865;51.934;10.330;2023-12-14T11:13:56;99129.34;;;3.20;100.00
24762;BME280;12865;51.934;10.330;2023-12-14T11:16:42;99139.09;;;3.32;100.00
24762;BME280;12865;51.934;10.330;2023-12-14T11:19:32;99149.47;;;3.35;100.00
24762;BME280;12865;51.934;10.330;2023-12-14T11:22:26;99158.22;;;3.35;100.00
24762;BME280;12865;51.934;10.330;2023-12-14T11:25:12;99168.63;;;3.37;100.00
24762;BME280;12865;51.934;10.330;2023-12-14T11:28:03;99164.66;;;3.44;100.00
24762;BME280;12865;51.934;10.330;2023-12-14T11:30:49;99169.97;;;3.30;100.00
24762;BME280;12865;51.934;10.330;2023-12-14T11:33:35;99166.19;;;3.48;100.00
24762;BME280;12865;51.934;10.330;2023-12-14T11:36:21;99177.13;;;3.42;100.00
24762;BME280;12865;51.934;10.330;2023-12-14T11:39:10;99174.28;;;3.45;100.00
24762;BME280;12865;51.934;10.330;2023-12-14T11:42:03;99182.00;;;3.34;100.00
24762;BME280;12865;51.934;10.330;2023-12-14T11:44:50;99187.81;;;3.53;100.00
24762;BME280;12865;51.934;10.330;2023-12-14T11:47:35;99186.13;;;3.52;100.00
24762;BME280;12865;51.934;10.330;2023-12-14T11:50:21;99191.00;;;3.58;100.00
24762;BME280;12865;51.934;10.330;2023-12-14T11:53:07;99187.91;;;3.51;100.00
24762;BME280;12865;51.934;10.330;2023-12-14T11:55:53;99197.44;;;3.54;100.00
24762;BME280;12865;51.934;10.330;2023-12-14T11:58:41;99193.09;;;3.53;100.00
24762;BME280;12865;51.934;10.330;2023-12-14T12:01:27;99205.50;;;3.65;100.00
24762;BME280;12865;51.934;10.330;2023-12-14T12:04:13;99210.88;;;3.64;100.00
24762;BME280;12865;51.934;10.330;2023-12-14T12:07:04;99202.78;;;3.52;100.00
24762;BME280;12865;51.934;10.330;2023-12-14T12:09:50;99195.09;;;3.49;100.00
24762;BME280;12865;51.934;10.330;2023-12-14T12:12:35;99201.84;;;3.53;100.00
24762;BME280;12865;51.934;10.330;2023-12-14T12:15:21;99208.59;;;3.58;100.00
24762;BME280;12865;51.934;10.330;2023-12-14T12:18:12;99204.75;;;3.63;100.00
24762;BME280;12865;51.934;10.330;2023-12-14T12:20:58;99193.78;;;3.83;100.00
24762;BME280;12865;51.934;10.330;2023-12-14T12:23:49;99201.94;;;3.52;100.00
24762;BME280;12865;51.934;10.330;2023-12-14T12:26:34;99206.28;;;3.53;100.00
24762;BME280;12865;51.934;10.330;2023-12-14T12:29:21;99216.03;;;3.65;100.00
24762;BME280;12865;51.934;10.330;2023-12-14T12:32:07;99204.41;;;3.55;100.00
24762;BME280;12865;51.934;10.330;2023-12-14T12:34:52;99215.56;;;3.59;100.00
24762;BME280;12865;51.934;10.330;2023-12-14T12:37:38;99216.72;;;3.54;100.00
24762;BME280;12865;51.934;10.330;2023-12-14T12:40:24;99214.38;;;3.50;100.00
24762;BME280;12865;51.934;10.330;2023-12-14T12:43:15;99218.66;;;3.65;100.00
24762;BME280;12865;51.934;10.330;2023-12-14T12:46:01;99222.38;;;3.48;100.00
24762;BME280;12865;51.934;10.330;2023-12-14T12:48:47;99223.00;;;3.66;100.00
24762;BME280;12865;51.934;10.330;2023-12-14T12:51:33;99229.81;;;3.56;100.00
24762;BME280;12865;51.934;10.330;2023-12-14T12:54:20;99233.19;;;3.58;100.00
24762;BME280;12865;51.934;10.330;2023-12-14T12:57:06;99233.09;;;3.45;100.00
24762;BME280;12865;51.934;10.330;2023-12-14T12:59:52;99236.41;;;3.49;100.00
24762;BME280;12865;51.934;10.330;2023-12-14T13:02:41;99238.56;;;3.57;100.00
24762;BME280;12865;51.934;10.330;2023-12-14T13:05:27;99237.81;;;3.54;100.00
24762;BME280;12865;51.934;10.330;2023-12-14T13:08:13;99242.69;;;3.61;100.00
24762;BME280;12865;51.934;10.330;2023-12-14T13:10:59;99252.94;;;3.65;100.00
24762;BME280;12865;51.934;10.330;2023-12-14T13:13:45;99254.19;;;3.60;100.00
24762;BME280;12865;51.934;10.330;2023-12-14T13:16:31;99252.88;;;3.52;100.00
24762;BME280;12865;51.934;10.330;2023-12-14T13:19:16;99256.72;;;3.61;100.00
24762;BME280;12865;51.934;10.330;2023-12-14T13:22:02;99259.44;;;3.60;100.00
24762;BME280;12865;51.934;10.330;2023-12-14T13:24:48;99262.53;;;3.66;100.00
24762;BME280;12865;51.934;10.330;2023-12-14T13:27:35;99264.34;;;3.66;100.00
24762;BME280;12865;51.934;10.330;2023-12-14T13:30:21;99266.59;;;3.58;100.00
24762;BME280;12865;51.934;10.330;2023-12-14T13:33:08;99273.09;;;3.52;100.00
24762;BME280;12865;51.934;10.330;2023-12-14T13:35:56;99267.34;;;3.60;100.00
24762;BME280;12865;51.934;10.330;2023-12-14T13:38:42;99286.56;;;3.62;100.00
24762;BME280;12865;51.934;10.330;2023-12-14T13:41:28;99286.00;;;3.57;100.00
24762;BME280;12865;51.934;10.330;2023-12-14T13:44:17;99291.94;;;3.60;100.00
24762;BME280;12865;51.934;10.330;2023-12-14T13:47:03;99303.78;;;3.67;100.00
24762;BME280;12865;51.934;10.330;2023-12-14T13:49:49;99301.34;;;3.64;100.00
24762;BME280;12865;51.934;10.330;2023-12-14T13:52:35;99310.94;;;3.65;100.00
24762;BME280;12865;51.934;10.330;2023-12-14T13:55:21;99318.38;;;3.73;100.00
24762;BME280;12865;51.934;10.330;2023-12-14T13:58:07;99328.38;;;3.68;100.00
24762;BME280;12865;51.934;10.330;2023-12-14T14:00:53;99323.78;;;3.71;100.00
24762;BME280;12865;51.934;10.330;2023-12-14T14:03:40;99330.25;;;3.66;100.00
24762;BME280;12865;51.934;10.330;2023-12-14T14:06:26;99336.56;;;3.49;100.00
24762;BME280;12865;51.934;10.330;2023-12-14T14:09:12;99338.25;;;3.50;100.00
24762;BME280;12865;51.934;10.330;2023-12-14T14:11:58;99340.78;;;3.51;100.00
24762;BME280;12865;51.934;10.330;2023-12-14T14:14:44;99352.63;;;3.59;100.00
24762;BME280;12865;51.934;10.330;2023-12-14T14:17:30;99359.91;;;3.69;100.00
24762;BME280;12865;51.934;10.330;2023-12-14T14:20:16;99356.34;;;3.70;100.00
24762;BME280;12865;51.934;10.330;2023-12-14T14:23:01;99360.38;;;3.62;100.00
24762;BME280;12865;51.934;10.330;2023-12-14T14:25:47;99362.91;;;3.49;100.00
24762;BME280;12865;51.934;10.330;2023-12-14T14:28:33;99368.81;;;3.52;100.00